createdAt,value
2022-09-10T00:00:05.089Z,59.60
2022-09-10T00:01:28.772Z,59.04
2022-09-10T00:02:32.191Z,58.43
2022-09-10T00:03:33.869Z,58.84
2022-09-10T00:04:35.613Z,59.80
2022-09-10T00:05:42.056Z,60.94
2022-09-10T00:06:45.120Z,62.03
2022-09-10T00:07:47.672Z,63.20
2022-09-10T00:08:49.362Z,64.68
2022-09-10T00:09:51.136Z,65.11
2022-09-10T00:10:52.836Z,64.57
2022-09-10T00:11:54.761Z,63.93
2022-09-10T00:12:56.448Z,63.05
2022-09-10T00:13:59.710Z,62.39
2022-09-10T00:15:02.198Z,61.73
2022-09-10T00:16:09.219Z,61.11
2022-09-10T00:17:10.949Z,60.67
2022-09-10T00:18:14.686Z,60.44
2022-09-10T00:19:17.180Z,60.18
2022-09-10T00:20:19.019Z,59.86
2022-09-10T00:21:21.616Z,59.65
2022-09-10T00:22:23.269Z,59.38
2022-09-10T00:23:28.257Z,58.76
2022-09-10T00:24:30.001Z,58.71
2022-09-10T00:25:34.998Z,59.49
2022-09-10T00:26:39.512Z,60.59
2022-09-10T00:27:41.426Z,61.91
2022-09-10T00:28:43.503Z,63.10
2022-09-10T00:29:45.559Z,64.48
2022-09-10T00:30:49.737Z,64.93
2022-09-10T00:31:51.785Z,64.48
2022-09-10T00:32:55.016Z,63.61
2022-09-10T00:33:59.309Z,62.87
2022-09-10T00:35:01.731Z,62.26
2022-09-10T00:36:06.017Z,61.63
2022-09-10T00:37:07.708Z,61.15
2022-09-10T00:38:10.935Z,60.83
2022-09-10T00:39:16.972Z,60.47
2022-09-10T00:40:19.268Z,60.14
2022-09-10T00:41:24.170Z,59.91
2022-09-10T00:42:25.963Z,59.79
2022-09-10T00:43:27.653Z,59.57
2022-09-10T00:44:40.956Z,59.38
2022-09-10T00:45:46.212Z,58.65
2022-09-10T00:46:51.898Z,58.70
2022-09-10T00:48:00.110Z,59.31
2022-09-10T00:49:09.952Z,60.74
2022-09-10T00:50:26.998Z,61.86
2022-09-10T00:51:35.139Z,63.81
2022-09-10T00:52:39.786Z,65.16
2022-09-10T00:53:43.323Z,65.08
2022-09-10T00:54:47.548Z,64.35
2022-09-10T00:55:54.957Z,63.47
2022-09-10T00:57:05.498Z,62.59
2022-09-10T00:58:11.965Z,61.92
2022-09-10T00:59:18.852Z,61.32
2022-09-10T01:00:21.369Z,60.87
2022-09-10T01:01:23.411Z,60.50
2022-09-10T01:02:26.070Z,60.21
2022-09-10T01:03:31.128Z,59.91
2022-09-10T01:04:33.455Z,59.64
2022-09-10T01:05:35.140Z,59.31
2022-09-10T01:06:40.386Z,58.61
2022-09-10T01:07:42.845Z,58.56
2022-09-10T01:08:44.505Z,59.23
2022-09-10T01:09:46.365Z,60.27
2022-09-10T01:11:14.444Z,61.54
2022-09-10T01:12:50.277Z,63.78
2022-09-10T01:14:17.079Z,64.98
2022-09-10T01:15:35.441Z,64.12
2022-09-10T01:16:44.584Z,63.03
2022-09-10T01:18:10.898Z,62.09
2022-09-10T01:19:51.440Z,61.22
2022-09-10T01:20:56.638Z,60.46
2022-09-10T01:22:21.613Z,60.05
2022-09-10T01:23:44.270Z,59.61
2022-09-10T01:24:56.607Z,58.85
2022-09-10T01:26:07.051Z,58.41
2022-09-10T01:27:26.758Z,59.19
2022-09-10T01:28:40.113Z,60.61
2022-09-10T01:30:08.934Z,62.06
2022-09-10T01:31:25.446Z,64.11
2022-09-10T01:32:38.761Z,64.89
2022-09-10T01:33:53.245Z,64.22
2022-09-10T01:35:14.656Z,63.24
2022-09-10T01:36:23.093Z,62.15
2022-09-10T01:37:31.391Z,61.35
2022-09-10T01:38:38.431Z,60.73
2022-09-10T01:39:42.490Z,60.26
2022-09-10T01:40:44.732Z,59.88
2022-09-10T01:41:52.876Z,59.47
2022-09-10T01:43:05.809Z,58.69
2022-09-10T01:44:44.311Z,58.46
2022-09-10T01:46:14.407Z,59.86
2022-09-10T01:47:41.037Z,61.50
2022-09-10T01:49:22.131Z,63.29
2022-09-10T01:50:38.453Z,64.67
2022-09-10T01:52:09.433Z,64.03
2022-09-10T01:53:47.882Z,62.76
2022-09-10T01:55:30.315Z,61.55
2022-09-10T01:56:50.088Z,60.59
2022-09-10T01:58:22.256Z,60.09
2022-09-10T01:59:54.391Z,59.53
2022-09-10T02:01:16.521Z,58.68
2022-09-10T02:02:28.884Z,58.47
2022-09-10T02:03:33.362Z,59.42
2022-09-10T02:04:37.309Z,60.37
2022-09-10T02:05:43.597Z,61.78
2022-09-10T02:06:50.154Z,63.21
2022-09-10T02:07:58.947Z,64.75
2022-09-10T02:09:02.424Z,64.87
2022-09-10T02:10:08.347Z,64.09
2022-09-10T02:11:16.128Z,63.03
2022-09-10T02:12:23.961Z,62.19
2022-09-10T02:13:31.689Z,61.44
2022-09-10T02:14:52.352Z,60.71
2022-09-10T02:15:59.385Z,60.19
2022-09-10T02:17:07.374Z,59.78
2022-09-10T02:18:09.543Z,59.38
2022-09-10T02:19:12.087Z,58.58
2022-09-10T02:20:14.993Z,58.35
2022-09-10T02:21:18.225Z,59.10
2022-09-10T02:22:23.853Z,60.15
2022-09-10T02:23:41.015Z,61.35
2022-09-10T02:24:44.311Z,62.80
2022-09-10T02:25:48.466Z,64.39
2022-09-10T02:26:51.109Z,64.89
2022-09-10T02:27:54.967Z,64.36
2022-09-10T02:28:56.731Z,63.43
2022-09-10T02:29:58.450Z,62.53
2022-09-10T02:31:01.725Z,61.70
2022-09-10T02:32:04.329Z,61.00
2022-09-10T02:33:06.262Z,60.43
2022-09-10T02:34:08.124Z,59.93
2022-09-10T02:35:09.999Z,59.53
2022-09-10T02:36:11.721Z,58.86
2022-09-10T02:37:13.707Z,58.32
2022-09-10T02:38:16.914Z,58.84
2022-09-10T02:39:18.957Z,59.91
2022-09-10T02:40:21.144Z,61.08
2022-09-10T02:41:24.182Z,62.27
2022-09-10T02:42:27.587Z,63.80
2022-09-10T02:43:29.828Z,64.81
2022-09-10T02:44:34.645Z,64.62
2022-09-10T02:45:38.782Z,63.85
2022-09-10T02:46:40.574Z,62.91
2022-09-10T02:47:42.704Z,62.07
2022-09-10T02:48:44.459Z,61.36
2022-09-10T02:49:46.156Z,60.73
2022-09-10T02:50:48.464Z,60.25
2022-09-10T02:51:51.592Z,59.86
2022-09-10T02:52:53.854Z,59.46
2022-09-10T02:53:55.876Z,58.75
2022-09-10T02:54:57.663Z,58.34
2022-09-10T02:56:01.026Z,58.84
2022-09-10T02:57:02.714Z,59.84
2022-09-10T02:58:04.434Z,61.09
2022-09-10T02:59:06.717Z,62.21
2022-09-10T03:00:08.917Z,63.67
2022-09-10T03:01:14.813Z,65.02
2022-09-10T03:02:17.365Z,65.00
2022-09-10T03:03:19.074Z,64.37
2022-09-10T03:04:20.705Z,63.38
2022-09-10T03:05:22.522Z,62.53
2022-09-10T03:06:27.149Z,61.85
2022-09-10T03:07:28.784Z,61.27
2022-09-10T03:08:31.045Z,60.79
2022-09-10T03:09:33.329Z,60.33
2022-09-10T03:10:36.020Z,59.99
2022-09-10T03:11:40.729Z,59.67
2022-09-10T03:12:42.717Z,59.31
2022-09-10T03:13:46.226Z,58.59
2022-09-10T03:14:48.654Z,58.62
2022-09-10T03:15:50.281Z,59.48
2022-09-10T03:16:52.742Z,60.34
2022-09-10T03:17:55.033Z,61.46
2022-09-10T03:18:56.688Z,62.44
2022-09-10T03:19:58.436Z,64.03
2022-09-10T03:21:10.859Z,65.08
2022-09-10T03:22:12.632Z,64.78
2022-09-10T03:23:14.383Z,63.89
2022-09-10T03:24:16.593Z,62.99
2022-09-10T03:25:20.156Z,62.22
2022-09-10T03:26:25.397Z,61.57
2022-09-10T03:27:27.335Z,61.09
2022-09-10T03:28:29.929Z,60.39
2022-09-10T03:29:31.645Z,59.95
2022-09-10T03:30:33.672Z,59.63
2022-09-10T03:31:36.107Z,59.34
2022-09-10T03:32:38.292Z,58.53
2022-09-10T03:33:41.711Z,58.34
2022-09-10T03:34:44.279Z,59.11
2022-09-10T03:35:46.614Z,60.25
2022-09-10T03:36:48.419Z,61.36
2022-09-10T03:37:50.484Z,62.43
2022-09-10T03:38:52.906Z,64.04
2022-09-10T03:39:54.599Z,64.93
2022-09-10T03:40:56.739Z,64.65
2022-09-10T03:41:59.540Z,63.81
2022-09-10T03:43:02.995Z,62.89
2022-09-10T03:44:06.204Z,61.95
2022-09-10T03:45:08.819Z,61.22
2022-09-10T03:46:12.100Z,60.65
2022-09-10T03:47:15.368Z,60.14
2022-09-10T03:48:19.002Z,59.74
2022-09-10T03:49:20.640Z,59.31
2022-09-10T03:50:23.955Z,58.52
2022-09-10T03:51:28.005Z,58.47
2022-09-10T03:52:30.198Z,59.22
2022-09-10T03:53:32.180Z,60.29
2022-09-10T03:54:35.383Z,61.41
2022-09-10T03:55:37.409Z,62.43
2022-09-10T03:56:39.804Z,63.86
2022-09-10T03:57:43.749Z,64.74
2022-09-10T03:58:46.224Z,64.43
2022-09-10T03:59:48.872Z,63.53
2022-09-10T04:00:50.749Z,62.54
2022-09-10T04:01:52.572Z,61.71
2022-09-10T04:02:55.128Z,60.91
2022-09-10T04:03:58.357Z,60.34
2022-09-10T04:05:01.913Z,59.84
2022-09-10T04:06:03.796Z,59.37
2022-09-10T04:07:05.526Z,58.53
2022-09-10T04:08:09.956Z,58.20
2022-09-10T04:09:12.056Z,58.89
2022-09-10T04:10:14.090Z,59.95
2022-09-10T04:11:16.074Z,61.04
2022-09-10T04:12:18.190Z,62.15
2022-09-10T04:13:19.932Z,63.56
2022-09-10T04:14:21.965Z,64.62
2022-09-10T04:15:25.004Z,64.47
2022-09-10T04:16:29.133Z,63.62
2022-09-10T04:17:31.677Z,62.69
2022-09-10T04:18:34.588Z,61.78
2022-09-10T04:19:38.097Z,60.96
2022-09-10T04:20:40.548Z,60.32
2022-09-10T04:21:44.752Z,59.78
2022-09-10T04:22:47.641Z,59.19
2022-09-10T04:23:54.376Z,58.34
2022-09-10T04:24:56.149Z,58.48
2022-09-10T04:25:57.853Z,59.29
2022-09-10T04:27:01.699Z,60.33
2022-09-10T04:28:03.897Z,61.43
2022-09-10T04:29:06.855Z,62.42
2022-09-10T04:30:10.151Z,63.82
2022-09-10T04:31:12.312Z,64.58
2022-09-10T04:32:14.373Z,64.17
2022-09-10T04:33:16.750Z,63.24
2022-09-10T04:34:18.468Z,62.25
2022-09-10T04:35:20.534Z,61.39
2022-09-10T04:36:22.815Z,60.61
2022-09-10T04:37:25.529Z,59.92
2022-09-10T04:38:30.423Z,59.31
2022-09-10T04:39:32.630Z,58.38
2022-09-10T04:40:34.925Z,58.21
2022-09-10T04:41:36.562Z,58.81
2022-09-10T04:42:39.567Z,59.93
2022-09-10T04:43:41.514Z,61.03
2022-09-10T04:44:43.249Z,62.10
2022-09-10T04:45:45.309Z,63.38
2022-09-10T04:46:47.867Z,64.52
2022-09-10T04:47:49.579Z,64.42
2022-09-10T04:48:52.046Z,63.68
2022-09-10T04:49:56.905Z,62.61
2022-09-10T04:51:15.827Z,61.77
2022-09-10T04:52:22.739Z,60.79
2022-09-10T04:53:27.815Z,60.15
2022-09-10T04:54:30.765Z,59.63
2022-09-10T04:55:33.269Z,59.04
2022-09-10T04:56:35.123Z,58.33
2022-09-10T04:57:36.751Z,58.58
2022-09-10T04:58:41.093Z,59.46
2022-09-10T04:59:43.511Z,60.52
2022-09-10T05:00:45.534Z,61.61
2022-09-10T05:01:51.152Z,62.73
2022-09-10T05:02:53.304Z,64.21
2022-09-10T05:03:55.353Z,64.56
2022-09-10T05:04:57.027Z,63.96
2022-09-10T05:05:59.011Z,63.03
2022-09-10T05:07:01.499Z,62.10
2022-09-10T05:08:05.728Z,61.20
2022-09-10T05:09:08.931Z,60.44
2022-09-10T05:10:10.683Z,59.90
2022-09-10T05:11:13.249Z,59.42
2022-09-10T05:12:15.787Z,58.54
2022-09-10T05:13:17.688Z,58.23
2022-09-10T05:14:19.722Z,58.80
2022-09-10T05:15:22.271Z,59.77
2022-09-10T05:16:24.238Z,60.77
2022-09-10T05:17:25.899Z,61.80
2022-09-10T05:18:27.790Z,62.85
2022-09-10T05:19:29.632Z,64.17
2022-09-10T05:20:36.476Z,64.42
2022-09-10T05:21:38.121Z,63.67
2022-09-10T05:22:40.746Z,62.61
2022-09-10T05:23:42.822Z,61.59
2022-09-10T05:24:45.346Z,60.69
2022-09-10T05:25:48.749Z,59.97
2022-09-10T05:26:50.671Z,59.25
2022-09-10T05:27:52.724Z,58.22
2022-09-10T05:28:59.717Z,57.98
2022-09-10T05:30:02.133Z,58.66
2022-09-10T05:31:04.119Z,59.72
2022-09-10T05:32:05.904Z,60.77
2022-09-10T05:33:08.738Z,61.80
2022-09-10T05:34:10.669Z,62.83
2022-09-10T05:35:13.903Z,64.20
2022-09-10T05:36:18.026Z,64.49
2022-09-10T05:37:19.689Z,63.81
2022-09-10T05:38:21.820Z,62.78
2022-09-10T05:39:24.445Z,61.78
2022-09-10T05:40:26.517Z,60.92
2022-09-10T05:41:28.545Z,60.21
2022-09-10T05:42:31.822Z,59.64
2022-09-10T05:43:34.002Z,58.88
2022-09-10T05:44:36.096Z,58.06
2022-09-10T05:45:38.309Z,58.26
2022-09-10T05:46:40.498Z,59.10
2022-09-10T05:47:46.684Z,60.25
2022-09-10T05:48:55.799Z,61.38
2022-09-10T05:49:57.452Z,62.49
2022-09-10T05:50:59.130Z,63.88
2022-09-10T05:52:00.974Z,64.61
2022-09-10T05:53:02.783Z,64.16
2022-09-10T05:54:06.621Z,63.19
2022-09-10T05:55:09.243Z,62.22
2022-09-10T05:56:10.924Z,61.26
2022-09-10T05:57:13.506Z,60.51
2022-09-10T05:58:16.188Z,59.91
2022-09-10T05:59:18.270Z,59.33
2022-09-10T06:00:25.456Z,58.37
2022-09-10T06:01:34.946Z,58.25
2022-09-10T06:02:39.030Z,59.05
2022-09-10T06:03:42.357Z,60.06
2022-09-10T06:04:44.205Z,61.20
2022-09-10T06:05:53.029Z,62.31
2022-09-10T06:06:59.083Z,63.95
2022-09-10T06:08:03.353Z,64.59
2022-09-10T06:09:09.020Z,64.05
2022-09-10T06:11:05.810Z,62.31
2022-09-10T06:12:14.309Z,61.28
2022-09-10T06:13:15.967Z,60.54
2022-09-10T06:14:17.775Z,59.90
2022-09-10T06:15:21.209Z,59.31
2022-09-10T06:16:23.719Z,58.37
2022-09-10T06:17:25.393Z,58.16
2022-09-10T06:18:27.874Z,58.78
2022-09-10T06:19:30.343Z,59.79
2022-09-10T06:20:32.517Z,60.80
2022-09-10T06:21:35.148Z,61.91
2022-09-10T06:22:37.045Z,63.09
2022-09-10T06:23:39.488Z,64.50
2022-09-10T06:24:42.116Z,64.66
2022-09-10T06:25:44.718Z,63.90
2022-09-10T06:26:50.120Z,62.93
2022-09-10T06:27:52.533Z,61.89
2022-09-10T06:28:56.813Z,61.12
2022-09-10T06:29:58.829Z,60.44
2022-09-10T06:31:00.917Z,59.87
2022-09-10T06:32:03.636Z,59.24
2022-09-10T06:33:05.329Z,58.32
2022-09-10T06:34:07.451Z,58.21
2022-09-10T06:35:09.953Z,58.96
2022-09-10T06:36:13.467Z,60.07
2022-09-10T06:37:16.616Z,61.20
2022-09-10T06:38:19.501Z,62.25
2022-09-10T06:39:21.406Z,63.62
2022-09-10T06:40:27.768Z,64.61
2022-09-10T06:41:31.112Z,64.34
2022-09-10T06:42:38.977Z,63.38
2022-09-10T06:43:51.902Z,62.15
2022-09-10T06:45:03.166Z,61.12
2022-09-10T06:49:12.675Z,58.31
2022-09-10T06:50:16.568Z,58.29
2022-09-10T06:51:20.347Z,59.01
2022-09-10T06:52:24.663Z,60.10
2022-09-10T06:53:35.095Z,61.31
2022-09-10T06:54:37.705Z,62.45
2022-09-10T06:55:54.700Z,64.12
2022-09-10T06:56:57.949Z,64.79
2022-09-10T06:58:00.565Z,64.45
2022-09-10T06:59:04.095Z,63.57
2022-09-10T07:00:11.125Z,62.61
2022-09-10T07:01:19.666Z,61.89
2022-09-10T07:02:25.420Z,61.10
2022-09-10T07:03:28.641Z,60.58
2022-09-10T07:04:30.260Z,60.22
2022-09-10T07:05:33.535Z,59.92
2022-09-10T07:06:37.030Z,59.49
2022-09-10T07:07:50.694Z,58.77
2022-09-10T07:08:57.443Z,58.44
2022-09-10T07:09:59.783Z,59.16
2022-09-10T07:11:05.234Z,60.22
2022-09-10T07:12:09.387Z,61.53
2022-09-10T07:13:13.517Z,62.83
2022-09-10T07:14:15.569Z,64.42
2022-09-10T07:15:17.370Z,64.95
2022-09-10T07:16:23.538Z,64.49
2022-09-10T07:17:29.856Z,63.54
2022-09-10T07:18:34.124Z,62.60
2022-09-10T07:19:37.634Z,61.78
2022-09-10T07:20:46.955Z,61.14
2022-09-10T07:21:50.123Z,60.75
2022-09-10T07:22:53.246Z,60.22
2022-09-10T07:23:57.618Z,59.82
2022-09-10T07:25:00.176Z,59.50
2022-09-10T07:26:11.369Z,58.87
2022-09-10T07:27:18.476Z,58.46
2022-09-10T07:28:21.849Z,59.04
2022-09-10T07:29:23.746Z,60.00
2022-09-10T07:30:29.199Z,61.39
2022-09-10T07:31:34.083Z,62.80
2022-09-10T07:32:41.173Z,64.60
2022-09-10T07:33:49.193Z,65.04
2022-09-10T07:34:52.281Z,64.45
2022-09-10T07:35:54.679Z,63.55
2022-09-10T07:36:57.224Z,62.60
2022-09-10T07:38:00.139Z,61.86
2022-09-10T07:39:03.500Z,61.16
2022-09-10T07:40:09.074Z,60.68
2022-09-10T07:41:13.921Z,60.20
2022-09-10T07:42:16.160Z,59.82
2022-09-10T07:43:18.977Z,59.49
2022-09-10T07:44:20.618Z,58.90
2022-09-10T07:45:23.105Z,58.53
2022-09-10T07:46:27.917Z,59.07
2022-09-10T07:47:30.273Z,60.18
2022-09-10T07:48:32.226Z,61.31
2022-09-10T07:49:34.551Z,62.16
2022-09-10T07:50:37.141Z,63.57
2022-09-10T07:51:39.396Z,65.02
2022-09-10T07:52:42.265Z,65.07
2022-09-10T07:53:50.281Z,64.39
2022-09-10T07:54:52.727Z,63.31
2022-09-10T07:56:03.275Z,62.50
2022-09-10T07:57:08.631Z,61.62
2022-09-10T07:58:10.762Z,61.03
2022-09-10T07:59:17.542Z,60.57
2022-09-10T08:00:22.329Z,60.13
2022-09-10T08:01:25.991Z,59.81
2022-09-10T08:02:27.756Z,59.53
2022-09-10T08:03:34.093Z,59.07
2022-09-10T08:04:37.505Z,58.46
2022-09-10T08:05:41.938Z,58.90
2022-09-10T08:06:44.059Z,59.88
2022-09-10T08:07:46.599Z,61.07
2022-09-10T08:08:48.766Z,62.19
2022-09-10T08:09:50.746Z,63.65
2022-09-10T08:10:53.744Z,64.76
2022-09-10T08:11:55.451Z,64.63
2022-09-10T08:12:58.841Z,63.84
2022-09-10T08:14:01.194Z,62.86
2022-09-10T08:15:04.936Z,61.94
2022-09-10T08:16:09.249Z,61.24
2022-09-10T08:17:10.920Z,60.66
2022-09-10T08:18:15.256Z,60.12
2022-09-10T08:19:18.118Z,59.66
2022-09-10T08:20:20.383Z,59.15
2022-09-10T08:21:23.331Z,58.39
2022-09-10T08:22:25.881Z,58.48
2022-09-10T08:23:30.298Z,59.31
2022-09-10T08:24:31.986Z,60.38
2022-09-10T08:25:34.711Z,61.48
2022-09-10T08:26:36.590Z,62.58
2022-09-10T08:27:42.065Z,64.18
2022-09-10T08:28:44.258Z,64.93
2022-09-10T08:29:45.928Z,64.51
2022-09-10T08:31:07.853Z,63.64
2022-09-10T08:32:13.897Z,62.37
2022-09-10T08:33:16.764Z,61.55
2022-09-10T08:34:18.773Z,60.88
2022-09-10T08:35:24.448Z,60.26
2022-09-10T08:36:26.295Z,59.79
2022-09-10T08:37:28.972Z,59.39
2022-09-10T08:38:33.870Z,58.61
2022-09-10T08:39:35.592Z,58.41
2022-09-10T08:40:42.648Z,59.06
2022-09-10T08:41:53.986Z,60.13
2022-09-10T08:42:58.498Z,61.41
2022-09-10T08:44:11.544Z,62.54
2022-09-10T08:45:27.498Z,64.25
2022-09-10T08:46:43.110Z,64.71
2022-09-10T08:48:16.308Z,63.70
2022-09-10T08:49:45.911Z,62.13
2022-09-10T08:50:56.994Z,60.93
2022-09-10T08:52:21.446Z,60.17
2022-09-10T08:53:41.959Z,59.46
2022-09-10T08:55:04.151Z,58.30
2022-09-10T08:56:18.255Z,58.20
2022-09-10T08:57:35.154Z,59.14
2022-09-10T08:59:03.077Z,60.29
2022-09-10T09:00:12.251Z,62.03
2022-09-10T09:01:29.604Z,63.54
2022-09-10T09:02:49.133Z,64.81
2022-09-10T09:03:57.265Z,64.17
2022-09-10T09:05:21.803Z,63.09
2022-09-10T09:06:48.177Z,61.92
2022-09-10T09:07:52.086Z,60.86
2022-09-10T09:08:54.215Z,60.20
2022-09-10T09:10:00.867Z,59.68
2022-09-10T09:11:12.767Z,59.18
2022-09-10T09:12:45.127Z,58.27
2022-09-10T09:14:05.652Z,58.71
2022-09-10T09:15:30.725Z,60.05
2022-09-10T09:16:54.465Z,61.55
2022-09-10T09:18:19.283Z,63.02
2022-09-10T09:19:38.847Z,64.55
2022-09-10T09:20:56.371Z,64.20
2022-09-10T09:22:20.509Z,63.24
2022-09-10T09:24:02.705Z,61.85
2022-09-10T09:25:38.624Z,60.62
2022-09-10T09:26:47.073Z,59.87
2022-09-10T09:27:56.268Z,59.43
2022-09-10T09:29:12.759Z,58.55
2022-09-10T09:30:25.940Z,58.56
2022-09-10T09:31:32.796Z,59.68
2022-09-10T09:32:44.126Z,61.01
2022-09-10T09:33:51.619Z,62.26
2022-09-10T09:34:57.354Z,63.95
2022-09-10T09:36:03.882Z,64.94
2022-09-10T09:37:17.387Z,64.59
2022-09-10T09:38:25.095Z,63.55
2022-09-10T09:39:44.107Z,62.55
2022-09-10T09:40:47.726Z,61.64
2022-09-10T09:42:19.503Z,60.99
2022-09-10T09:43:34.691Z,59.99
2022-09-10T09:44:47.511Z,59.42
2022-09-10T09:45:53.388Z,58.41
2022-09-10T09:46:56.385Z,58.32
2022-09-10T09:47:59.761Z,59.08
2022-09-10T09:49:02.634Z,60.12
2022-09-10T09:50:05.124Z,61.32
2022-09-10T09:51:12.808Z,62.43
2022-09-10T09:52:23.343Z,63.98
2022-09-10T09:53:29.289Z,64.63
2022-09-10T09:55:03.021Z,64.06
2022-09-10T09:56:12.751Z,62.83
2022-09-10T09:57:20.348Z,61.78
2022-09-10T09:58:21.855Z,60.93
2022-09-10T09:59:34.947Z,60.34
2022-09-10T10:00:37.813Z,59.58
2022-09-10T10:01:42.816Z,58.81
2022-09-10T10:02:45.225Z,58.36
2022-09-10T10:03:59.450Z,58.90
2022-09-10T10:05:39.022Z,60.06
2022-09-10T10:06:54.760Z,61.79
2022-09-10T10:07:56.509Z,63.19
2022-09-10T10:09:23.211Z,64.43
2022-09-10T10:10:27.744Z,64.13
2022-09-10T10:11:43.650Z,63.14
2022-09-10T10:12:51.173Z,61.94
2022-09-10T10:13:52.950Z,60.99
2022-09-10T10:14:54.572Z,60.25
2022-09-10T10:15:56.247Z,59.70
2022-09-10T10:17:00.977Z,59.08
2022-09-10T10:18:32.013Z,58.22
2022-09-10T10:19:37.495Z,58.71
2022-09-10T10:20:41.389Z,59.66
2022-09-10T10:21:44.881Z,60.79
2022-09-10T10:22:48.740Z,62.00
2022-09-10T10:23:50.487Z,63.24
2022-09-10T10:24:54.343Z,64.40
2022-09-10T10:25:56.033Z,64.31
2022-09-10T10:26:59.241Z,63.52
2022-09-10T10:28:01.639Z,62.44
2022-09-10T10:29:18.482Z,61.48
2022-09-10T10:30:21.556Z,60.44
2022-09-10T10:31:23.694Z,59.83
2022-09-10T10:32:38.563Z,59.00
2022-09-10T10:34:00.967Z,58.03
2022-09-10T10:35:11.529Z,58.49
2022-09-10T10:36:40.260Z,59.57
2022-09-10T10:38:08.633Z,61.03
2022-09-10T10:39:22.098Z,62.56
2022-09-10T10:40:30.274Z,64.12
2022-09-10T10:41:54.425Z,64.58
2022-09-10T10:43:23.295Z,63.65
2022-09-10T10:44:49.269Z,62.45
2022-09-10T10:46:08.691Z,61.25
2022-09-10T10:47:36.366Z,60.30
2022-09-10T10:49:04.319Z,59.41
2022-09-10T10:50:25.413Z,58.31
2022-09-10T10:51:48.822Z,58.58
2022-09-10T10:53:13.821Z,59.57
2022-09-10T10:54:44.848Z,60.86
2022-09-10T10:56:08.421Z,62.17
2022-09-10T10:57:23.060Z,63.67
2022-09-10T10:58:40.745Z,64.22
2022-09-10T11:00:07.372Z,63.29
2022-09-10T11:01:23.435Z,61.92
2022-09-10T11:02:52.997Z,60.72
2022-09-10T11:04:23.202Z,59.59
2022-09-10T11:05:58.588Z,58.10
2022-09-10T11:07:28.759Z,58.13
2022-09-10T11:08:40.425Z,59.53
2022-09-10T11:10:11.443Z,60.75
2022-09-10T11:11:27.854Z,62.08
2022-09-10T11:13:11.298Z,63.59
2022-09-10T11:14:48.615Z,64.54
2022-09-10T11:16:15.041Z,63.27
2022-09-10T11:17:27.076Z,61.88
2022-09-10T11:18:42.852Z,60.92
2022-09-10T11:20:26.696Z,60.05
2022-09-10T11:21:38.262Z,59.06
2022-09-10T11:22:49.222Z,58.14
2022-09-10T11:24:04.939Z,58.57
2022-09-10T11:25:22.541Z,59.87
2022-09-10T11:26:33.537Z,61.19
2022-09-10T11:27:42.167Z,62.30
2022-09-10T11:28:58.813Z,63.76
2022-09-10T11:30:10.146Z,64.60
2022-09-10T11:31:25.287Z,63.97
2022-09-10T11:32:45.196Z,62.90
2022-09-10T11:33:57.631Z,61.82
2022-09-10T11:35:23.404Z,60.87
2022-09-10T11:36:33.307Z,59.89
2022-09-10T11:38:07.587Z,59.02
2022-09-10T11:39:35.202Z,57.92
2022-09-10T11:40:59.390Z,58.73
2022-09-10T11:42:14.748Z,60.10
2022-09-10T11:43:37.272Z,61.38
2022-09-10T11:45:07.557Z,62.67
2022-09-10T11:46:19.441Z,64.38
2022-09-10T11:47:38.681Z,64.17
2022-09-10T11:48:51.963Z,63.07
2022-09-10T11:50:23.021Z,61.96
2022-09-10T11:51:33.638Z,60.75
2022-09-10T11:52:35.813Z,60.00
2022-09-10T11:53:37.588Z,59.33
2022-09-10T11:54:40.470Z,58.32
2022-09-10T11:56:15.314Z,58.18
2022-09-10T11:57:32.241Z,59.34
2022-09-10T11:58:42.376Z,60.64
2022-09-10T12:00:03.476Z,61.80
2022-09-10T12:01:46.861Z,63.39
2022-09-10T12:03:01.719Z,64.55
2022-09-10T12:04:17.169Z,63.78
2022-09-10T12:05:54.121Z,62.64
2022-09-10T12:07:05.075Z,61.21
2022-09-10T12:08:17.514Z,60.42
2022-09-10T12:09:41.998Z,59.70
2022-09-10T12:11:20.606Z,58.74
2022-09-10T12:12:45.134Z,58.38
2022-09-10T12:13:50.077Z,59.37
2022-09-10T12:14:51.826Z,60.40
2022-09-10T12:15:59.738Z,61.43
2022-09-10T12:17:16.077Z,62.54
2022-09-10T12:18:24.467Z,64.21
2022-09-10T12:19:38.513Z,64.49
2022-09-10T12:20:53.001Z,63.67
2022-09-10T12:22:15.880Z,62.46
2022-09-10T12:23:33.639Z,61.24
2022-09-10T12:24:39.403Z,60.38
2022-09-10T12:25:41.970Z,59.80
2022-09-10T12:26:45.387Z,59.35
2022-09-10T12:27:50.231Z,58.45
2022-09-10T12:28:51.747Z,58.21
2022-09-10T12:29:54.403Z,58.79
2022-09-10T12:31:01.140Z,59.80
2022-09-10T12:32:08.610Z,61.00
2022-09-10T12:33:13.180Z,62.18
2022-09-10T12:34:19.434Z,63.56
2022-09-10T12:35:30.369Z,64.57
2022-09-10T12:36:32.856Z,64.14
2022-09-10T12:37:34.587Z,63.09
2022-09-10T12:38:55.089Z,62.11
2022-09-10T12:40:25.365Z,60.82
2022-09-10T12:41:27.201Z,59.77
2022-09-10T12:42:32.506Z,59.06
2022-09-10T12:43:40.000Z,58.15
2022-09-10T12:44:41.725Z,58.37
2022-09-10T12:46:05.484Z,59.17
2022-09-10T12:47:16.413Z,60.56
2022-09-10T12:48:18.273Z,61.77
2022-09-10T12:49:21.486Z,62.83
2022-09-10T12:50:31.370Z,64.08
2022-09-10T12:51:51.663Z,64.17
2022-09-10T12:53:14.955Z,63.12
2022-09-10T12:54:57.484Z,61.72
2022-09-10T12:56:37.594Z,60.38
2022-09-10T12:57:54.819Z,59.33
2022-09-10T12:59:33.127Z,58.17
2022-09-10T13:00:58.125Z,58.44
2022-09-10T13:02:00.623Z,59.67
2022-09-10T13:03:05.838Z,60.73
2022-09-10T13:04:20.463Z,61.79
2022-09-10T13:05:31.459Z,63.09
2022-09-10T13:06:38.186Z,64.36
2022-09-10T13:07:41.978Z,64.20
2022-09-10T13:08:47.665Z,63.37
2022-09-10T13:10:19.688Z,62.37
2022-09-10T13:11:25.942Z,60.98
2022-09-10T13:12:32.711Z,60.22
2022-09-10T13:13:56.478Z,59.57
2022-09-10T13:15:02.594Z,58.45
2022-09-10T13:16:09.423Z,58.04
2022-09-10T13:17:51.373Z,58.67
2022-09-10T13:19:05.716Z,60.35
2022-09-10T13:20:28.961Z,61.61
2022-09-10T13:21:31.722Z,63.16
2022-09-10T13:23:06.560Z,64.38
2022-09-10T13:24:35.724Z,63.97
2022-09-10T13:25:43.475Z,62.79
2022-09-10T13:26:52.397Z,61.84
2022-09-10T13:27:54.085Z,60.94
2022-09-10T13:28:56.203Z,60.30
2022-09-10T13:30:17.628Z,59.76
2022-09-10T13:31:27.039Z,58.96
2022-09-10T13:32:46.446Z,58.11
2022-09-10T13:34:19.559Z,58.60
2022-09-10T13:35:45.454Z,59.97
2022-09-10T13:37:14.200Z,61.33
2022-09-10T13:38:39.757Z,62.95
2022-09-10T13:39:54.669Z,64.54
2022-09-10T13:41:25.642Z,64.30
2022-09-10T13:42:57.703Z,62.77
2022-09-10T13:44:26.130Z,61.34
2022-09-10T13:45:41.729Z,60.39
2022-09-10T13:46:50.543Z,59.51
2022-09-10T13:48:10.457Z,58.47
2022-09-10T13:49:30.286Z,58.02
2022-09-10T13:50:39.913Z,58.93
2022-09-10T13:51:48.054Z,60.03
2022-09-10T13:52:56.696Z,61.15
2022-09-10T13:54:33.164Z,62.26
2022-09-10T13:55:35.716Z,64.05
2022-09-10T13:56:43.070Z,64.19
2022-09-10T13:57:50.002Z,63.42
2022-09-10T13:59:00.814Z,62.39
2022-09-10T14:00:19.493Z,61.46
2022-09-10T14:01:51.199Z,60.39
2022-09-10T14:03:01.317Z,59.23
2022-09-10T14:04:23.941Z,58.10
2022-09-10T14:05:31.298Z,58.20
2022-09-10T14:06:33.254Z,59.07
2022-09-10T14:07:34.914Z,60.06
2022-09-10T14:09:02.882Z,60.98
2022-09-10T14:10:06.872Z,62.05
2022-09-10T14:11:21.933Z,63.00
2022-09-10T14:12:29.500Z,64.28
2022-09-10T14:13:36.829Z,64.01
2022-09-10T14:14:45.010Z,63.09
2022-09-10T14:15:47.651Z,61.99
2022-09-10T14:17:02.592Z,61.06
2022-09-10T14:18:05.061Z,60.12
2022-09-10T14:19:17.486Z,59.42
2022-09-10T14:20:35.293Z,58.33
2022-09-10T14:21:37.274Z,58.29
2022-09-10T14:22:39.301Z,58.98
2022-09-10T14:23:49.086Z,59.83
2022-09-10T14:25:00.639Z,60.79
2022-09-10T14:26:15.078Z,61.75
2022-09-10T14:27:24.016Z,62.79
2022-09-10T14:28:27.921Z,64.04
2022-09-10T14:29:29.542Z,64.00
2022-09-10T14:30:32.070Z,63.10
2022-09-10T14:31:37.536Z,61.91
2022-09-10T14:32:40.001Z,60.98
2022-09-10T14:33:41.851Z,60.13
2022-09-10T14:34:43.738Z,59.51
2022-09-10T14:35:49.526Z,58.48
2022-09-10T14:36:51.302Z,57.87
2022-09-10T14:37:53.354Z,58.30
2022-09-10T14:39:04.933Z,59.22
2022-09-10T14:40:17.876Z,60.36
2022-09-10T14:41:23.009Z,61.52
2022-09-10T14:42:34.967Z,62.46
2022-09-10T14:43:40.329Z,63.98
2022-09-10T14:44:43.238Z,64.42
2022-09-10T14:45:49.823Z,63.84
2022-09-10T14:46:59.872Z,62.83
2022-09-10T14:48:01.618Z,61.60
2022-09-10T14:49:09.776Z,60.94